createdAt,value
2022-09-10T00:01:39.373Z,1.70
2022-09-10T00:04:13.602Z,2.00
2022-09-10T00:06:42.652Z,2.00
2022-09-10T00:09:11.717Z,1.90
2022-09-10T00:11:40.782Z,1.50
2022-09-10T00:14:16.112Z,1.60
2022-09-10T00:16:43.922Z,1.80
2022-09-10T00:19:11.817Z,1.90
2022-09-10T00:21:39.398Z,2.00
2022-09-10T00:24:06.959Z,1.90
2022-09-10T00:26:40.444Z,2.30
2022-09-10T00:29:11.389Z,1.80
2022-09-10T00:31:38.991Z,1.80
2022-09-10T00:34:07.522Z,1.60
2022-09-10T00:36:40.979Z,2.30
2022-09-10T00:39:12.221Z,2.10
2022-09-10T00:44:40.235Z,1.60
2022-09-10T00:47:15.698Z,1.90
2022-09-10T00:49:52.499Z,1.80
2022-09-10T00:52:20.034Z,2.10
2022-09-10T00:54:48.458Z,1.60
2022-09-10T00:57:21.434Z,1.90
2022-09-10T00:59:53.950Z,2.10
2022-09-10T01:02:21.960Z,2.10
2022-09-10T01:04:50.202Z,1.80
2022-09-10T01:07:21.466Z,1.60
2022-09-10T01:13:04.015Z,2.20
2022-09-10T01:15:48.627Z,1.90
2022-09-10T01:18:30.319Z,1.90
2022-09-10T01:21:05.395Z,1.60
2022-09-10T01:24:12.335Z,1.90
2022-09-10T01:26:56.487Z,1.60
2022-09-10T01:29:42.209Z,2.50
2022-09-10T01:32:20.635Z,2.50
2022-09-10T01:35:10.279Z,1.80
2022-09-10T01:37:40.281Z,2.10
2022-09-10T01:40:08.665Z,2.10
2022-09-10T01:42:39.854Z,1.60
2022-09-10T01:45:12.690Z,1.70
2022-09-10T01:48:04.420Z,2.00
2022-09-10T01:50:57.269Z,1.80
2022-09-10T01:54:00.213Z,2.30
2022-09-10T01:56:41.127Z,1.80
2022-09-10T01:59:38.249Z,1.80
2022-09-10T02:02:15.479Z,2.60
2022-09-10T02:04:44.256Z,1.80
2022-09-10T02:07:13.968Z,1.80
2022-09-10T02:09:42.138Z,1.90
2022-09-10T02:12:19.122Z,1.90
2022-09-10T02:14:55.882Z,1.80
2022-09-10T02:17:31.813Z,2.20
2022-09-10T02:20:02.283Z,2.00
2022-09-10T02:22:36.311Z,2.10
2022-09-10T02:25:05.566Z,1.70
2022-09-10T02:27:33.373Z,1.80
2022-09-10T02:30:01.273Z,1.90
2022-09-10T02:32:28.899Z,2.10
2022-09-10T02:34:56.254Z,1.70
2022-09-10T02:37:24.421Z,2.00
2022-09-10T02:39:51.842Z,2.10
2022-09-10T02:42:19.255Z,2.10
2022-09-10T02:44:48.116Z,2.10
2022-09-10T02:47:15.467Z,2.20
2022-09-10T02:49:42.974Z,2.80
2022-09-10T02:52:10.373Z,2.30
2022-09-10T02:54:38.032Z,1.70
2022-09-10T02:57:05.582Z,2.10
2022-09-10T02:59:33.851Z,1.80
2022-09-10T03:02:01.278Z,1.80
2022-09-10T03:04:28.776Z,2.00
2022-09-10T03:06:56.239Z,2.30
2022-09-10T03:09:23.682Z,2.20
2022-09-10T03:11:51.925Z,1.60
2022-09-10T03:14:22.338Z,2.10
2022-09-10T03:16:50.338Z,2.90
2022-09-10T03:19:18.391Z,2.30
2022-09-10T03:21:47.638Z,2.70
2022-09-10T03:24:15.659Z,2.50
2022-09-10T03:26:44.432Z,2.30
2022-09-10T03:29:12.754Z,2.00
2022-09-10T03:31:40.455Z,1.80
2022-09-10T03:34:09.038Z,1.80
2022-09-10T03:36:36.415Z,2.20
2022-09-10T03:39:04.071Z,2.10
2022-09-10T03:41:32.223Z,2.10
2022-09-10T03:43:59.644Z,1.80
2022-09-10T03:46:27.250Z,2.50
2022-09-10T03:48:55.530Z,2.10
2022-09-10T03:51:23.407Z,1.90
2022-09-10T03:53:50.845Z,2.00
2022-09-10T03:56:20.257Z,2.60
2022-09-10T03:58:49.339Z,1.90
2022-09-10T04:01:18.655Z,2.10
2022-09-10T04:03:47.342Z,1.90
2022-09-10T04:06:18.844Z,2.50
2022-09-10T04:08:52.042Z,2.00
2022-09-10T04:11:20.389Z,2.00
2022-09-10T04:13:48.731Z,1.90
2022-09-10T04:16:18.175Z,2.10
2022-09-10T04:18:46.192Z,2.00
2022-09-10T04:21:13.672Z,1.90
2022-09-10T04:23:41.330Z,2.30
2022-09-10T04:26:20.525Z,2.10
2022-09-10T04:28:48.153Z,2.00
2022-09-10T04:31:15.743Z,1.90
2022-09-10T04:33:43.365Z,2.00
2022-09-10T04:36:12.912Z,2.00
2022-09-10T04:38:41.749Z,1.80
2022-09-10T04:41:09.727Z,2.00
2022-09-10T04:43:38.095Z,2.40
2022-09-10T04:46:05.675Z,2.90
2022-09-10T04:48:33.634Z,2.10
2022-09-10T04:51:17.426Z,3.00
2022-09-10T04:53:45.872Z,1.90
2022-09-10T04:56:13.641Z,2.00
2022-09-10T04:58:41.808Z,2.40
2022-09-10T05:01:10.323Z,2.10
2022-09-10T05:03:37.992Z,1.90
2022-09-10T05:06:05.875Z,1.70
2022-09-10T05:08:33.322Z,1.70
2022-09-10T05:11:03.034Z,2.00
2022-09-10T05:13:31.747Z,2.10
2022-09-10T05:15:59.789Z,2.20
2022-09-10T05:18:27.509Z,1.90
2022-09-10T05:20:54.994Z,2.10
2022-09-10T05:23:22.398Z,1.80
2022-09-10T05:25:49.838Z,2.00
2022-09-10T05:28:17.353Z,2.20
2022-09-10T05:30:49.557Z,2.10
2022-09-10T05:33:18.838Z,3.30
2022-09-10T05:35:51.740Z,2.10
2022-09-10T05:38:20.032Z,2.00
2022-09-10T05:40:48.449Z,2.60
2022-09-10T05:43:16.039Z,2.40
2022-09-10T05:45:43.440Z,2.40
2022-09-10T05:48:10.883Z,3.00
2022-09-10T05:50:38.582Z,2.30
2022-09-10T05:53:06.385Z,2.00
2022-09-10T05:55:33.770Z,2.50
2022-09-10T05:58:01.325Z,2.10
2022-09-10T06:00:29.512Z,2.60
2022-09-10T06:02:57.563Z,2.00
2022-09-10T06:05:25.223Z,2.40
2022-09-10T06:07:52.640Z,2.20
2022-09-10T06:10:20.068Z,2.10
2022-09-10T06:12:50.171Z,1.90
2022-09-10T06:15:19.586Z,2.30
2022-09-10T06:17:47.099Z,2.00
2022-09-10T06:20:15.704Z,1.90
2022-09-10T06:22:43.097Z,1.90
2022-09-10T06:25:10.484Z,2.10
2022-09-10T06:27:38.303Z,2.90
2022-09-10T06:30:06.339Z,2.10
2022-09-10T06:32:33.698Z,2.20
2022-09-10T06:35:01.243Z,1.90
2022-09-10T06:37:28.613Z,2.10
2022-09-10T06:39:56.082Z,2.00
2022-09-10T06:42:23.924Z,1.80
2022-09-10T06:44:51.442Z,2.10
2022-09-10T06:47:55.760Z,2.40
2022-09-10T06:50:07.536Z,2.00
2022-09-10T06:52:35.616Z,2.00
2022-09-10T06:55:04.242Z,1.60
2022-09-10T06:57:31.701Z,2.00
2022-09-10T06:59:59.158Z,2.10
2022-09-10T07:02:26.534Z,2.00
2022-09-10T07:04:53.929Z,2.20
2022-09-10T07:07:22.257Z,2.20
2022-09-10T07:09:49.626Z,2.00
2022-09-10T07:12:17.477Z,2.00
2022-09-10T07:14:44.870Z,2.00
2022-09-10T07:17:12.291Z,1.90
2022-09-10T07:19:39.903Z,2.80
2022-09-10T07:22:07.339Z,2.30
2022-09-10T07:24:34.864Z,1.70
2022-09-10T07:27:02.285Z,1.90
2022-09-10T07:29:31.360Z,2.10
2022-09-10T07:31:58.950Z,3.30
2022-09-10T07:34:26.429Z,2.40
2022-09-10T07:36:56.836Z,2.00
2022-09-10T07:39:25.890Z,1.70
2022-09-10T07:41:53.641Z,1.80
2022-09-10T07:44:21.046Z,1.90
2022-09-10T07:46:48.485Z,2.10
2022-09-10T07:49:16.178Z,2.10
2022-09-10T07:51:43.564Z,2.30
2022-09-10T07:54:12.050Z,2.10
2022-09-10T07:56:39.455Z,2.00
2022-09-10T07:59:06.908Z,2.10
2022-09-10T08:01:34.363Z,1.80
2022-09-10T08:04:04.272Z,2.30
2022-09-10T08:06:34.070Z,1.90
2022-09-10T08:09:06.516Z,1.80
2022-09-10T08:11:34.724Z,2.50
2022-09-10T08:14:02.128Z,1.90
2022-09-10T08:16:29.796Z,1.60
2022-09-10T08:18:57.370Z,1.90
2022-09-10T08:21:25.896Z,1.90
2022-09-10T08:23:54.754Z,1.90
2022-09-10T08:26:24.450Z,2.10
2022-09-10T08:28:53.562Z,1.70
2022-09-10T08:31:22.888Z,1.90
2022-09-10T08:33:52.841Z,2.20
2022-09-10T08:36:24.340Z,1.90
2022-09-10T08:38:57.026Z,1.60
2022-09-10T08:41:58.377Z,1.90
2022-09-10T08:44:38.463Z,2.00
2022-09-10T08:47:21.597Z,2.10
2022-09-10T08:50:23.361Z,2.00
2022-09-10T08:52:58.247Z,1.90
2022-09-10T08:55:31.985Z,1.90
2022-09-10T08:58:14.540Z,1.90
2022-09-10T09:00:44.880Z,1.90
2022-09-10T09:03:18.720Z,2.30
2022-09-10T09:05:54.349Z,1.70
2022-09-10T09:08:27.299Z,1.80
2022-09-10T09:11:04.201Z,2.00
2022-09-10T09:14:10.572Z,1.90
2022-09-10T09:17:14.891Z,1.90
2022-09-10T09:20:18.213Z,1.80
2022-09-10T09:23:26.700Z,2.40
2022-09-10T09:26:04.272Z,1.90
2022-09-10T09:28:51.650Z,1.80
2022-09-10T09:31:25.743Z,1.80
2022-09-10T09:34:07.240Z,1.90
2022-09-10T09:36:42.664Z,1.60
2022-09-10T09:39:46.129Z,1.90
2022-09-10T09:42:42.843Z,1.60
2022-09-10T09:45:28.419Z,2.00
2022-09-10T09:47:56.023Z,1.60
2022-09-10T09:50:23.503Z,1.70
2022-09-10T09:52:56.732Z,1.90
2022-09-10T09:55:44.099Z,1.90
2022-09-10T09:58:26.967Z,1.70
2022-09-10T10:00:56.062Z,1.80
2022-09-10T10:03:29.255Z,1.90
2022-09-10T10:06:11.780Z,1.90
2022-09-10T10:08:44.726Z,1.70
2022-09-10T10:11:16.175Z,1.80
2022-09-10T10:13:46.258Z,1.70
2022-09-10T10:16:22.287Z,2.10
2022-09-10T10:18:51.257Z,1.70
2022-09-10T10:21:40.107Z,2.20
2022-09-10T10:24:32.601Z,2.00
2022-09-10T10:27:00.734Z,1.90
2022-09-10T10:29:28.436Z,2.00
2022-09-10T10:31:56.368Z,2.30
2022-09-10T10:34:53.975Z,2.10
2022-09-10T10:38:01.102Z,2.10
2022-09-10T10:40:40.326Z,2.10
2022-09-10T10:43:44.257Z,2.10
2022-09-10T10:46:28.262Z,2.20
2022-09-10T10:49:23.566Z,2.00
2022-09-10T10:52:04.041Z,2.20
2022-09-10T10:54:57.784Z,2.30
2022-09-10T10:58:25.900Z,2.60
2022-09-10T11:01:05.633Z,2.00
2022-09-10T11:04:10.402Z,2.20
2022-09-10T11:06:46.995Z,2.20
2022-09-10T11:09:25.712Z,2.10
2022-09-10T11:12:11.428Z,2.30
2022-09-10T11:15:13.478Z,2.20
2022-09-10T11:17:53.970Z,2.80
2022-09-10T11:20:30.507Z,2.10
2022-09-10T11:23:20.646Z,2.10
2022-09-10T11:25:56.260Z,2.20
2022-09-10T11:28:36.726Z,2.20
2022-09-10T11:31:25.492Z,2.40
2022-09-10T11:34:05.097Z,2.30
2022-09-10T11:36:49.297Z,1.80
2022-09-10T11:39:24.508Z,2.90
2022-09-10T11:41:56.939Z,2.00
2022-09-10T11:44:43.481Z,2.40
2022-09-10T11:47:37.844Z,2.30
2022-09-10T11:50:37.841Z,2.40
2022-09-10T11:53:07.639Z,2.50
2022-09-10T11:55:49.844Z,2.20
2022-09-10T11:58:37.999Z,2.30
2022-09-10T12:01:38.561Z,2.50
2022-09-10T12:04:42.772Z,2.30
2022-09-10T12:07:54.021Z,2.20
2022-09-10T12:11:01.053Z,2.10
2022-09-10T12:13:28.490Z,2.00
2022-09-10T12:16:02.503Z,2.00
2022-09-10T12:18:42.822Z,2.10
2022-09-10T12:21:39.896Z,2.20
2022-09-10T12:24:31.040Z,2.00
2022-09-10T12:29:33.519Z,1.70
2022-09-10T12:32:19.312Z,2.00
2022-09-10T12:34:51.191Z,2.20
2022-09-10T12:37:28.845Z,2.30
2022-09-10T12:40:37.908Z,2.10
2022-09-10T12:43:44.018Z,2.20
2022-09-10T12:46:14.216Z,2.20
2022-09-10T12:48:48.492Z,2.20
2022-09-10T12:51:40.759Z,2.30
2022-09-10T12:54:35.806Z,2.00
2022-09-10T12:57:24.259Z,1.90
2022-09-10T13:00:19.500Z,2.00
2022-09-10T13:03:11.482Z,1.80
2022-09-10T13:05:52.952Z,1.90
2022-09-10T13:08:27.068Z,1.80
2022-09-10T13:10:58.321Z,1.60
2022-09-10T13:13:55.811Z,1.60
2022-09-10T13:16:26.525Z,2.00
2022-09-10T13:19:17.538Z,1.60
2022-09-10T13:21:44.871Z,1.20
2022-09-10T13:24:34.063Z,1.20
2022-09-10T13:27:13.227Z,1.30
2022-09-10T13:29:45.208Z,1.30
2022-09-10T13:32:21.850Z,1.10
2022-09-10T13:35:14.839Z,1.20
2022-09-10T13:38:26.478Z,1.10
2022-09-10T13:41:31.850Z,1.40
2022-09-10T13:44:55.655Z,1.80
2022-09-10T13:47:39.417Z,1.30
2022-09-10T13:50:17.731Z,1.50
2022-09-10T13:52:48.362Z,1.30
2022-09-10T13:55:22.470Z,1.60
2022-09-10T13:57:55.311Z,1.50
2022-09-10T14:00:29.190Z,1.30
2022-09-10T14:03:00.038Z,1.40
2022-09-10T14:05:47.208Z,1.30
2022-09-10T14:08:30.585Z,1.30
2022-09-10T14:11:00.861Z,1.40
2022-09-10T14:13:41.197Z,1.50
2022-09-10T14:16:15.415Z,1.50
2022-09-10T14:18:49.578Z,1.40
2022-09-10T14:21:18.024Z,1.40
2022-09-10T14:23:47.931Z,1.40
2022-09-10T14:26:25.942Z,1.70
2022-09-10T14:29:04.009Z,1.90
2022-09-10T14:31:36.437Z,2.00
2022-09-10T14:34:32.330Z,2.20
2022-09-10T14:37:01.459Z,2.20
2022-09-10T14:39:29.303Z,2.20
2022-09-10T14:42:27.176Z,2.10
2022-09-10T14:44:54.730Z,1.90
2022-09-10T14:47:35.013Z,1.50
2022-09-10T14:50:25.790Z,1.70
2022-09-10T14:52:53.943Z,1.70
2022-09-10T14:55:25.280Z,1.80
2022-09-10T14:57:55.518Z,1.50
2022-09-10T15:00:23.964Z,1.40
2022-09-10T15:02:55.984Z,1.20
2022-09-10T15:05:24.764Z,1.50
2022-09-10T15:07:52.209Z,1.50
2022-09-10T15:10:19.644Z,1.70
2022-09-10T15:12:50.012Z,1.70
2022-09-10T15:15:18.375Z,1.50
2022-09-10T15:17:45.789Z,1.60
2022-09-10T15:20:16.911Z,2.10
2022-09-10T15:22:44.909Z,1.60
2022-09-10T15:25:39.127Z,1.50
2022-09-10T15:28:07.648Z,1.50
2022-09-10T15:30:36.055Z,1.70
2022-09-10T15:33:07.276Z,1.50
2022-09-10T15:35:34.829Z,1.80
2022-09-10T15:38:02.293Z,2.00
2022-09-10T15:40:29.731Z,1.60
2022-09-10T15:42:57.863Z,1.70
2022-09-10T15:45:25.335Z,1.70
2022-09-10T15:47:54.042Z,1.60
2022-09-10T15:50:21.591Z,1.80
2022-09-10T15:52:48.958Z,1.80
2022-09-10T15:55:16.906Z,1.30
2022-09-10T15:57:45.143Z,1.30
2022-09-10T16:00:14.269Z,1.50
2022-09-10T16:02:42.361Z,1.40
2022-09-10T16:05:09.962Z,1.60
2022-09-10T16:07:37.341Z,1.50
2022-09-10T16:10:06.267Z,1.50
2022-09-10T16:12:33.852Z,1.90
2022-09-10T16:15:01.417Z,2.10
2022-09-10T16:17:28.965Z,1.70
2022-09-10T16:19:56.413Z,1.70
2022-09-10T16:22:24.047Z,1.60
2022-09-10T16:24:51.667Z,1.40
2022-09-10T16:27:19.910Z,1.50
2022-09-10T16:29:48.453Z,1.50
2022-09-10T16:32:15.854Z,1.90
2022-09-10T16:34:43.515Z,2.20
2022-09-10T16:37:10.892Z,1.90
2022-09-10T16:39:38.306Z,2.20
2022-09-10T16:42:05.891Z,2.10
2022-09-10T16:44:33.960Z,2.00
2022-09-10T16:47:02.076Z,2.00
2022-09-10T16:49:29.527Z,2.20
2022-09-10T16:51:56.932Z,2.00
2022-09-10T16:54:26.963Z,2.20
2022-09-10T16:56:55.089Z,2.20
2022-09-10T16:59:23.928Z,2.20
2022-09-10T17:01:52.670Z,2.50
2022-09-10T17:04:28.790Z,2.20
2022-09-10T17:06:58.066Z,2.40
2022-09-10T17:09:25.685Z,2.20
2022-09-10T17:11:53.399Z,2.40
2022-09-10T17:14:21.415Z,2.50
2022-09-10T17:16:50.039Z,2.30
2022-09-10T17:19:23.706Z,2.10
2022-09-10T17:21:55.748Z,2.00
2022-09-10T17:24:25.889Z,2.30
2022-09-10T17:26:57.736Z,2.40
2022-09-10T17:29:26.530Z,2.30
2022-09-10T17:31:57.538Z,2.60
2022-09-10T17:36:54.521Z,2.50
2022-09-10T17:39:22.270Z,2.80
2022-09-10T17:41:50.264Z,3.30
2022-09-10T17:44:18.149Z,2.70
2022-09-10T17:46:46.457Z,2.40
2022-09-10T17:49:15.344Z,2.80
2022-09-10T17:51:43.360Z,2.90
2022-09-10T17:54:11.192Z,2.90
2022-09-10T17:56:38.571Z,2.40
2022-09-10T17:59:06.743Z,2.70
2022-09-10T18:01:39.054Z,3.20
2022-09-10T18:04:08.529Z,2.40
2022-09-10T18:06:37.165Z,2.50
2022-09-10T18:09:06.101Z,2.60
2022-09-10T18:11:39.744Z,2.50
2022-09-10T18:14:08.242Z,2.30
2022-09-10T18:16:37.859Z,2.20
2022-09-10T18:19:14.324Z,2.30
2022-09-10T18:21:44.110Z,2.40
2022-09-10T18:24:18.264Z,2.90
2022-09-10T18:26:48.213Z,2.90
2022-09-10T18:29:23.351Z,2.60
2022-09-10T18:31:57.292Z,2.60
2022-09-10T18:34:29.516Z,2.80
2022-09-10T18:37:00.238Z,2.80
2022-09-10T18:39:31.081Z,2.50
2022-09-10T18:42:00.939Z,2.70
2022-09-10T18:44:35.341Z,2.60
2022-09-10T18:47:05.587Z,2.60
2022-09-10T18:49:33.619Z,2.60
2022-09-10T18:52:01.119Z,2.20
2022-09-10T18:54:31.801Z,2.80
2022-09-10T18:56:59.245Z,2.10
2022-09-10T18:59:26.711Z,2.40
2022-09-10T19:01:55.812Z,2.50
2022-09-10T19:04:29.579Z,2.30
2022-09-10T19:06:57.702Z,2.40
2022-09-10T19:09:29.390Z,2.30
2022-09-10T19:11:59.226Z,2.40
2022-09-10T19:14:30.609Z,2.40
2022-09-10T19:17:00.448Z,2.50
2022-09-10T19:19:33.857Z,2.40
2022-09-10T19:22:07.147Z,2.60
2022-09-10T19:24:53.956Z,2.40
2022-09-10T19:27:23.562Z,2.50
2022-09-10T19:29:51.870Z,2.10
2022-09-10T19:32:20.004Z,2.60
2022-09-10T19:34:51.542Z,2.20
2022-09-10T19:37:19.861Z,2.30
2022-09-10T19:39:47.687Z,2.80
2022-09-10T19:42:15.277Z,2.70
2022-09-10T19:44:43.524Z,2.90
2022-09-10T19:47:10.943Z,2.60
2022-09-10T19:49:39.152Z,2.50
2022-09-10T19:52:06.645Z,2.70
2022-09-10T19:54:34.549Z,2.60
2022-09-10T19:57:01.980Z,2.80
2022-09-10T19:59:29.363Z,2.60
2022-09-10T20:01:56.833Z,3.20
2022-09-10T20:04:25.682Z,2.60
2022-09-10T20:06:53.104Z,2.60
2022-09-10T20:09:20.550Z,2.50
2022-09-10T20:11:48.023Z,2.50
2022-09-10T20:14:15.619Z,2.40
2022-09-10T20:16:45.571Z,2.60
2022-09-10T20:19:18.355Z,2.30
2022-09-10T20:21:47.625Z,2.70
2022-09-10T20:24:16.384Z,2.50
2022-09-10T20:26:46.711Z,2.50
2022-09-10T20:29:19.236Z,2.80
2022-09-10T20:31:47.248Z,2.40
2022-09-10T20:34:19.523Z,2.60
2022-09-10T20:36:51.295Z,2.70
2022-09-10T20:39:24.104Z,2.80
2022-09-10T20:41:51.514Z,2.50
2022-09-10T20:44:19.987Z,2.80
2022-09-10T20:46:47.363Z,3.00
2022-09-10T20:49:16.603Z,3.10
2022-09-10T20:51:45.179Z,2.70
2022-09-10T20:54:17.304Z,3.10
2022-09-10T20:56:45.648Z,2.70
2022-09-10T20:59:15.774Z,2.80
2022-09-10T21:01:46.445Z,2.70
2022-09-10T21:04:14.399Z,3.40
2022-09-10T21:06:42.012Z,2.90
2022-09-10T21:09:09.738Z,2.90
2022-09-10T21:11:37.940Z,3.30
2022-09-10T21:14:07.578Z,3.60
2022-09-10T21:16:39.027Z,3.80
2022-09-10T21:19:11.415Z,3.60
2022-09-10T21:21:40.753Z,4.40
2022-09-10T21:24:17.854Z,6.90
2022-09-10T21:26:45.499Z,9.30
2022-09-10T21:29:16.494Z,11.00
2022-09-10T21:31:45.581Z,10.60
2022-09-10T21:34:14.416Z,10.10
2022-09-10T21:36:43.922Z,8.00
2022-09-10T21:39:17.565Z,9.20
2022-09-10T21:41:51.708Z,7.50
2022-09-10T21:44:22.295Z,7.60
2022-09-10T21:46:49.758Z,6.60
2022-09-10T21:49:18.550Z,5.70
2022-09-10T21:51:46.034Z,4.50
2022-09-10T21:54:18.665Z,4.40
2022-09-10T21:56:49.881Z,4.10
2022-09-10T22:01:46.588Z,4.20
2022-09-10T22:04:17.861Z,4.00
2022-09-10T22:06:49.234Z,4.10
2022-09-10T22:09:17.632Z,4.20
2022-09-10T22:11:50.055Z,3.90
2022-09-10T22:14:23.208Z,4.20
2022-09-10T22:16:51.766Z,3.80
2022-09-10T22:19:25.141Z,3.80
2022-09-10T22:21:57.431Z,4.40
2022-09-10T22:24:26.082Z,3.90
2022-09-10T22:26:53.587Z,3.70
2022-09-10T22:29:21.242Z,3.40
2022-09-10T22:31:49.732Z,3.30
2022-09-10T22:34:18.306Z,3.10
2022-09-10T22:36:47.555Z,3.50
2022-09-10T22:39:21.427Z,3.40
2022-09-10T22:41:50.456Z,3.30
2022-09-10T22:44:18.144Z,3.40
2022-09-10T22:46:46.153Z,3.50
2022-09-10T22:49:15.554Z,3.60
2022-09-10T22:51:43.413Z,3.40
2022-09-10T22:54:11.485Z,3.50
2022-09-10T22:56:39.853Z,4.10
2022-09-10T22:59:11.542Z,3.80
2022-09-10T23:01:39.505Z,3.60
2022-09-10T23:04:08.170Z,4.10
2022-09-10T23:06:38.785Z,4.20
2022-09-10T23:09:10.983Z,4.20
2022-09-10T23:11:39.841Z,4.30
2022-09-10T23:14:11.566Z,3.70
2022-09-10T23:16:44.694Z,4.20
2022-09-10T23:19:15.606Z,4.20
2022-09-10T23:21:46.675Z,4.20
2022-09-10T23:24:17.593Z,4.20
2022-09-10T23:26:45.767Z,3.90
2022-09-10T23:29:17.408Z,4.40
2022-09-10T23:31:46.133Z,4.40
2022-09-10T23:34:17.595Z,4.20
2022-09-10T23:36:47.567Z,4.70
2022-09-10T23:39:21.292Z,4.40
2022-09-10T23:41:50.630Z,4.50
2022-09-10T23:44:18.271Z,4.10
2022-09-10T23:46:46.100Z,5.00
2022-09-10T23:49:13.773Z,4.00
2022-09-10T23:51:41.426Z,5.50
2022-09-10T23:54:10.301Z,5.00
2022-09-10T23:56:39.528Z,5.00
2022-09-10T23:59:07.962Z,5.80
